sensor_id;sensor_type;location;lat;lon;timestamp;P1;durP1;ratioP1;P2;durP2;ratioP2
29030;SDS011;16122;50.236;11.734;2023-02-15T00:01:29;17.00;;;9.30;;
29030;SDS011;16122;50.236;11.734;2023-02-15T00:03:55;15.53;;;9.23;;
29030;SDS011;16122;50.236;11.734;2023-02-15T00:06:22;16.57;;;9.17;;
29030;SDS011;16122;50.236;11.734;2023-02-15T00:08:48;15.80;;;9.30;;
29030;SDS011;16122;50.236;11.734;2023-02-15T00:11:14;15.20;;;8.70;;
29030;SDS011;16122;50.236;11.734;2023-02-15T00:13:42;14.27;;;8.67;;
29030;SDS011;16122;50.236;11.734;2023-02-15T00:16:11;14.87;;;7.93;;
29030;SDS011;16122;50.236;11.734;2023-02-15T00:18:38;17.10;;;8.00;;
29030;SDS011;16122;50.236;11.734;2023-02-15T00:21:05;13.30;;;8.80;;
29030;SDS011;16122;50.236;11.734;2023-02-15T00:23:34;15.27;;;8.17;;
29030;SDS011;16122;50.236;11.734;2023-02-15T00:26:04;13.10;;;7.87;;
29030;SDS011;16122;50.236;11.734;2023-02-15T00:28:34;17.13;;;8.50;;
29030;SDS011;16122;50.236;11.734;2023-02-15T00:31:04;13.93;;;7.93;;
29030;SDS011;16122;50.236;11.734;2023-02-15T00:33:35;15.10;;;8.60;;
29030;SDS011;16122;50.236;11.734;2023-02-15T00:36:02;11.53;;;7.63;;
29030;SDS011;16122;50.236;11.734;2023-02-15T00:38:29;10.60;;;7.40;;
29030;SDS011;16122;50.236;11.734;2023-02-15T00:40:55;13.60;;;7.53;;
29030;SDS011;16122;50.236;11.734;2023-02-15T00:43:22;13.43;;;7.97;;
29030;SDS011;16122;50.236;11.734;2023-02-15T00:45:48;14.70;;;7.47;;
29030;SDS011;16122;50.236;11.734;2023-02-15T00:48:14;14.03;;;7.60;;
29030;SDS011;16122;50.236;11.734;2023-02-15T00:50:40;17.53;;;7.73;;
29030;SDS011;16122;50.236;11.734;2023-02-15T00:53:07;12.80;;;7.30;;
29030;SDS011;16122;50.236;11.734;2023-02-15T00:55:33;8.60;;;6.67;;
29030;SDS011;16122;50.236;11.734;2023-02-15T00:57:59;13.13;;;6.77;;
29030;SDS011;16122;50.236;11.734;2023-02-15T01:00:25;15.30;;;7.70;;
29030;SDS011;16122;50.236;11.734;2023-02-15T01:02:50;14.53;;;7.10;;
29030;SDS011;16122;50.236;11.734;2023-02-15T01:05:16;13.90;;;6.47;;
29030;SDS011;16122;50.236;11.734;2023-02-15T01:07:42;12.03;;;7.07;;
29030;SDS011;16122;50.236;11.734;2023-02-15T01:10:08;12.57;;;8.07;;
29030;SDS011;16122;50.236;11.734;2023-02-15T01:12:34;10.60;;;7.10;;
29030;SDS011;16122;50.236;11.734;2023-02-15T01:15:00;10.37;;;7.03;;
29030;SDS011;16122;50.236;11.734;2023-02-15T01:17:26;9.73;;;6.23;;
29030;SDS011;16122;50.236;11.734;2023-02-15T01:19:51;12.63;;;6.87;;
29030;SDS011;16122;50.236;11.734;2023-02-15T01:22:18;9.90;;;6.43;;
29030;SDS011;16122;50.236;11.734;2023-02-15T01:24:44;12.53;;;6.27;;
29030;SDS011;16122;50.236;11.734;2023-02-15T01:27:10;8.13;;;5.60;;
29030;SDS011;16122;50.236;11.734;2023-02-15T01:29:35;8.03;;;5.93;;
29030;SDS011;16122;50.236;11.734;2023-02-15T01:32:02;11.40;;;6.30;;
29030;SDS011;16122;50.236;11.734;2023-02-15T01:34:28;10.10;;;6.23;;
29030;SDS011;16122;50.236;11.734;2023-02-15T01:36:56;9.43;;;5.80;;
29030;SDS011;16122;50.236;11.734;2023-02-15T01:39:21;10.60;;;5.90;;
29030;SDS011;16122;50.236;11.734;2023-02-15T01:41:49;9.23;;;6.10;;
29030;SDS011;16122;50.236;11.734;2023-02-15T01:47:18;7.57;;;5.57;;
29030;SDS011;16122;50.236;11.734;2023-02-15T01:49:48;9.10;;;6.07;;
29030;SDS011;16122;50.236;11.734;2023-02-15T01:52:25;9.33;;;5.30;;
29030;SDS011;16122;50.236;11.734;2023-02-15T01:54:51;7.77;;;5.73;;
29030;SDS011;16122;50.236;11.734;2023-02-15T01:57:18;10.10;;;5.77;;
29030;SDS011;16122;50.236;11.734;2023-02-15T01:59:52;8.73;;;5.13;;
29030;SDS011;16122;50.236;11.734;2023-02-15T02:02:21;8.80;;;5.37;;
29030;SDS011;16122;50.236;11.734;2023-02-15T02:04:52;9.27;;;5.90;;
29030;SDS011;16122;50.236;11.734;2023-02-15T02:07:21;9.27;;;5.20;;
29030;SDS011;16122;50.236;11.734;2023-02-15T02:09:51;8.50;;;5.70;;
29030;SDS011;16122;50.236;11.734;2023-02-15T02:12:17;6.80;;;5.03;;
29030;SDS011;16122;50.236;11.734;2023-02-15T02:14:44;7.87;;;5.13;;
29030;SDS011;16122;50.236;11.734;2023-02-15T02:27:47;6.00;;;4.20;;
29030;SDS011;16122;50.236;11.734;2023-02-15T02:44:02;5.93;;;4.80;;
29030;SDS011;16122;50.236;11.734;2023-02-15T02:46:32;4.60;;;4.20;;
29030;SDS011;16122;50.236;11.734;2023-02-15T02:49:11;5.00;;;4.27;;
29030;SDS011;16122;50.236;11.734;2023-02-15T02:51:37;6.90;;;4.33;;
29030;SDS011;16122;50.236;11.734;2023-02-15T02:54:04;4.23;;;3.83;;
29030;SDS011;16122;50.236;11.734;2023-02-15T02:59:24;5.67;;;4.20;;
29030;SDS011;16122;50.236;11.734;2023-02-15T03:04:29;5.40;;;4.30;;
29030;SDS011;16122;50.236;11.734;2023-02-15T03:07:01;7.90;;;4.20;;
29030;SDS011;16122;50.236;11.734;2023-02-15T03:09:41;4.10;;;3.50;;
29030;SDS011;16122;50.236;11.734;2023-02-15T03:12:16;6.43;;;4.13;;
29030;SDS011;16122;50.236;11.734;2023-02-15T03:14:50;6.63;;;4.00;;
29030;SDS011;16122;50.236;11.734;2023-02-15T03:17:19;5.00;;;3.70;;
29030;SDS011;16122;50.236;11.734;2023-02-15T03:19:46;5.97;;;3.80;;
29030;SDS011;16122;50.236;11.734;2023-02-15T03:22:18;4.80;;;3.77;;
29030;SDS011;16122;50.236;11.734;2023-02-15T03:27:54;4.43;;;3.70;;
29030;SDS011;16122;50.236;11.734;2023-02-15T03:30:25;6.00;;;4.50;;
29030;SDS011;16122;50.236;11.734;2023-02-15T03:32:54;3.77;;;3.10;;
29030;SDS011;16122;50.236;11.734;2023-02-15T03:35:24;6.07;;;3.83;;
29030;SDS011;16122;50.236;11.734;2023-02-15T03:38:00;6.53;;;4.00;;
29030;SDS011;16122;50.236;11.734;2023-02-15T03:40:32;3.37;;;2.80;;
29030;SDS011;16122;50.236;11.734;2023-02-15T03:46:12;4.93;;;2.97;;
29030;SDS011;16122;50.236;11.734;2023-02-15T03:49:01;5.10;;;3.60;;
29030;SDS011;16122;50.236;11.734;2023-02-15T03:51:40;4.47;;;3.57;;
29030;SDS011;16122;50.236;11.734;2023-02-15T03:54:10;3.33;;;3.03;;
29030;SDS011;16122;50.236;11.734;2023-02-15T03:57:04;4.90;;;3.47;;
29030;SDS011;16122;50.236;11.734;2023-02-15T03:59:51;4.60;;;3.70;;
29030;SDS011;16122;50.236;11.734;2023-02-15T04:02:54;4.13;;;2.90;;
29030;SDS011;16122;50.236;11.734;2023-02-15T04:05:31;3.70;;;3.00;;
29030;SDS011;16122;50.236;11.734;2023-02-15T04:07:57;3.60;;;3.03;;
29030;SDS011;16122;50.236;11.734;2023-02-15T04:10:23;3.53;;;2.93;;
29030;SDS011;16122;50.236;11.734;2023-02-15T04:13:07;3.50;;;2.83;;
29030;SDS011;16122;50.236;11.734;2023-02-15T04:15:33;3.07;;;2.83;;
29030;SDS011;16122;50.236;11.734;2023-02-15T04:18:17;3.57;;;3.27;;
29030;SDS011;16122;50.236;11.734;2023-02-15T04:20:44;3.33;;;2.60;;
29030;SDS011;16122;50.236;11.734;2023-02-15T04:23:29;4.10;;;2.93;;
29030;SDS011;16122;50.236;11.734;2023-02-15T04:26:14;3.27;;;2.97;;
29030;SDS011;16122;50.236;11.734;2023-02-15T04:28:39;3.97;;;2.90;;
29030;SDS011;16122;50.236;11.734;2023-02-15T04:31:05;3.20;;;2.90;;
29030;SDS011;16122;50.236;11.734;2023-02-15T04:33:31;2.67;;;2.47;;
29030;SDS011;16122;50.236;11.734;2023-02-15T04:35:57;3.40;;;2.70;;
29030;SDS011;16122;50.236;11.734;2023-02-15T04:38:23;3.27;;;2.97;;
29030;SDS011;16122;50.236;11.734;2023-02-15T04:40:49;3.33;;;2.77;;
29030;SDS011;16122;50.236;11.734;2023-02-15T04:43:17;4.03;;;2.80;;
29030;SDS011;16122;50.236;11.734;2023-02-15T04:45:47;2.80;;;2.47;;
29030;SDS011;16122;50.236;11.734;2023-02-15T04:48:15;2.60;;;2.40;;
29030;SDS011;16122;50.236;11.734;2023-02-15T04:50:41;4.73;;;2.73;;
29030;SDS011;16122;50.236;11.734;2023-02-15T04:53:07;2.83;;;2.47;;
29030;SDS011;16122;50.236;11.734;2023-02-15T04:55:33;5.70;;;2.70;;
29030;SDS011;16122;50.236;11.734;2023-02-15T04:57:59;4.40;;;2.60;;
29030;SDS011;16122;50.236;11.734;2023-02-15T05:00:25;3.73;;;2.27;;
29030;SDS011;16122;50.236;11.734;2023-02-15T05:02:50;2.60;;;2.30;;
29030;SDS011;16122;50.236;11.734;2023-02-15T05:05:16;3.40;;;2.40;;
29030;SDS011;16122;50.236;11.734;2023-02-15T05:07:42;4.53;;;2.63;;
29030;SDS011;16122;50.236;11.734;2023-02-15T05:10:08;2.67;;;2.47;;
29030;SDS011;16122;50.236;11.734;2023-02-15T05:12:34;3.70;;;2.47;;
29030;SDS011;16122;50.236;11.734;2023-02-15T05:15:00;5.30;;;2.70;;
29030;SDS011;16122;50.236;11.734;2023-02-15T05:17:26;3.93;;;2.50;;
29030;SDS011;16122;50.236;11.734;2023-02-15T05:19:52;3.90;;;2.70;;
29030;SDS011;16122;50.236;11.734;2023-02-15T05:22:17;4.50;;;2.50;;
29030;SDS011;16122;50.236;11.734;2023-02-15T05:24:43;4.10;;;2.10;;
29030;SDS011;16122;50.236;11.734;2023-02-15T05:27:28;5.37;;;3.23;;
29030;SDS011;16122;50.236;11.734;2023-02-15T05:30:12;6.30;;;3.00;;
29030;SDS011;16122;50.236;11.734;2023-02-15T05:32:39;4.40;;;2.47;;
29030;SDS011;16122;50.236;11.734;2023-02-15T05:35:05;3.33;;;2.30;;
29030;SDS011;16122;50.236;11.734;2023-02-15T05:37:32;4.47;;;2.57;;
29030;SDS011;16122;50.236;11.734;2023-02-15T05:39:58;2.13;;;1.83;;
29030;SDS011;16122;50.236;11.734;2023-02-15T05:42:24;3.90;;;2.60;;
29030;SDS011;16122;50.236;11.734;2023-02-15T05:44:50;2.90;;;2.23;;
29030;SDS011;16122;50.236;11.734;2023-02-15T05:47:16;3.13;;;2.53;;
29030;SDS011;16122;50.236;11.734;2023-02-15T05:49:41;4.50;;;2.67;;
29030;SDS011;16122;50.236;11.734;2023-02-15T05:52:07;6.30;;;2.20;;
29030;SDS011;16122;50.236;11.734;2023-02-15T05:54:33;2.83;;;1.83;;
29030;SDS011;16122;50.236;11.734;2023-02-15T05:56:59;3.23;;;2.37;;
29030;SDS011;16122;50.236;11.734;2023-02-15T05:59:25;4.33;;;2.00;;
29030;SDS011;16122;50.236;11.734;2023-02-15T06:01:51;3.00;;;2.40;;
29030;SDS011;16122;50.236;11.734;2023-02-15T06:04:17;3.53;;;2.30;;
29030;SDS011;16122;50.236;11.734;2023-02-15T06:06:42;5.10;;;2.30;;
29030;SDS011;16122;50.236;11.734;2023-02-15T06:09:09;2.73;;;2.13;;
29030;SDS011;16122;50.236;11.734;2023-02-15T06:11:37;3.87;;;2.30;;
29030;SDS011;16122;50.236;11.734;2023-02-15T06:14:02;2.77;;;2.40;;
29030;SDS011;16122;50.236;11.734;2023-02-15T06:16:28;2.10;;;1.70;;
29030;SDS011;16122;50.236;11.734;2023-02-15T06:18:55;2.40;;;2.10;;
29030;SDS011;16122;50.236;11.734;2023-02-15T06:21:21;3.33;;;2.40;;
29030;SDS011;16122;50.236;11.734;2023-02-15T06:23:47;2.37;;;2.13;;
29030;SDS011;16122;50.236;11.734;2023-02-15T06:26:13;3.10;;;2.00;;
29030;SDS011;16122;50.236;11.734;2023-02-15T06:28:39;2.70;;;2.30;;
29030;SDS011;16122;50.236;11.734;2023-02-15T06:31:06;2.93;;;2.63;;
29030;SDS011;16122;50.236;11.734;2023-02-15T06:33:32;2.43;;;2.10;;
29030;SDS011;16122;50.236;11.734;2023-02-15T06:35:59;3.73;;;1.97;;
29030;SDS011;16122;50.236;11.734;2023-02-15T06:38:25;2.80;;;2.50;;
29030;SDS011;16122;50.236;11.734;2023-02-15T06:40:51;2.53;;;2.20;;
29030;SDS011;16122;50.236;11.734;2023-02-15T06:43:17;2.47;;;1.90;;
29030;SDS011;16122;50.236;11.734;2023-02-15T06:45:43;3.03;;;2.10;;
29030;SDS011;16122;50.236;11.734;2023-02-15T06:48:09;4.90;;;2.67;;
29030;SDS011;16122;50.236;11.734;2023-02-15T06:50:36;2.87;;;2.67;;
29030;SDS011;16122;50.236;11.734;2023-02-15T06:53:02;2.37;;;2.17;;
29030;SDS011;16122;50.236;11.734;2023-02-15T06:55:28;2.47;;;2.27;;
29030;SDS011;16122;50.236;11.734;2023-02-15T06:57:54;2.20;;;2.00;;
29030;SDS011;16122;50.236;11.734;2023-02-15T07:00:19;2.50;;;2.27;;
29030;SDS011;16122;50.236;11.734;2023-02-15T07:02:47;2.10;;;1.90;;
29030;SDS011;16122;50.236;11.734;2023-02-15T07:05:13;3.30;;;2.40;;
29030;SDS011;16122;50.236;11.734;2023-02-15T07:07:39;2.73;;;1.90;;
29030;SDS011;16122;50.236;11.734;2023-02-15T07:10:05;2.30;;;2.10;;
29030;SDS011;16122;50.236;11.734;2023-02-15T07:12:31;2.03;;;1.83;;
29030;SDS011;16122;50.236;11.734;2023-02-15T07:15:07;2.20;;;2.00;;
29030;SDS011;16122;50.236;11.734;2023-02-15T07:17:37;2.47;;;1.60;;
29030;SDS011;16122;50.236;11.734;2023-02-15T07:20:04;2.30;;;2.10;;
29030;SDS011;16122;50.236;11.734;2023-02-15T07:22:33;2.77;;;2.20;;
29030;SDS011;16122;50.236;11.734;2023-02-15T07:25:01;2.10;;;2.00;;
29030;SDS011;16122;50.236;11.734;2023-02-15T07:27:28;2.37;;;2.17;;
29030;SDS011;16122;50.236;11.734;2023-02-15T07:29:54;2.13;;;1.90;;
29030;SDS011;16122;50.236;11.734;2023-02-15T07:32:19;1.90;;;1.80;;
29030;SDS011;16122;50.236;11.734;2023-02-15T07:34:45;2.20;;;1.93;;
29030;SDS011;16122;50.236;11.734;2023-02-15T07:37:11;1.93;;;1.80;;
29030;SDS011;16122;50.236;11.734;2023-02-15T07:39:37;2.30;;;2.10;;
29030;SDS011;16122;50.236;11.734;2023-02-15T07:42:03;2.77;;;2.57;;
29030;SDS011;16122;50.236;11.734;2023-02-15T07:44:30;3.07;;;2.67;;
29030;SDS011;16122;50.236;11.734;2023-02-15T07:46:56;2.00;;;1.90;;
29030;SDS011;16122;50.236;11.734;2023-02-15T07:49:22;2.17;;;1.97;;
29030;SDS011;16122;50.236;11.734;2023-02-15T07:51:48;2.47;;;2.27;;
29030;SDS011;16122;50.236;11.734;2023-02-15T07:54:14;3.23;;;2.27;;
29030;SDS011;16122;50.236;11.734;2023-02-15T07:56:39;2.17;;;2.00;;
29030;SDS011;16122;50.236;11.734;2023-02-15T07:59:06;2.03;;;1.83;;
29030;SDS011;16122;50.236;11.734;2023-02-15T08:01:34;1.80;;;1.70;;
29030;SDS011;16122;50.236;11.734;2023-02-15T08:04:02;2.23;;;2.03;;
29030;SDS011;16122;50.236;11.734;2023-02-15T08:06:30;2.00;;;1.90;;
29030;SDS011;16122;50.236;11.734;2023-02-15T08:08:58;2.10;;;2.00;;
29030;SDS011;16122;50.236;11.734;2023-02-15T08:11:26;2.50;;;2.30;;
29030;SDS011;16122;50.236;11.734;2023-02-15T08:18:56;1.80;;;1.70;;
29030;SDS011;16122;50.236;11.734;2023-02-15T08:21:25;2.23;;;1.60;;
29030;SDS011;16122;50.236;11.734;2023-02-15T08:23:52;2.10;;;2.00;;
29030;SDS011;16122;50.236;11.734;2023-02-15T08:26:18;1.73;;;1.63;;
29030;SDS011;16122;50.236;11.734;2023-02-15T08:28:44;2.73;;;2.20;;
29030;SDS011;16122;50.236;11.734;2023-02-15T08:31:11;2.77;;;1.70;;
29030;SDS011;16122;50.236;11.734;2023-02-15T08:33:39;1.80;;;1.70;;
29030;SDS011;16122;50.236;11.734;2023-02-15T08:36:08;2.93;;;2.10;;
29030;SDS011;16122;50.236;11.734;2023-02-15T08:38:36;2.10;;;2.00;;
29030;SDS011;16122;50.236;11.734;2023-02-15T08:41:11;1.93;;;1.83;;
29030;SDS011;16122;50.236;11.734;2023-02-15T08:43:46;2.20;;;2.03;;
29030;SDS011;16122;50.236;11.734;2023-02-15T08:46:14;1.60;;;1.50;;
29030;SDS011;16122;50.236;11.734;2023-02-15T08:48:41;1.80;;;1.70;;
29030;SDS011;16122;50.236;11.734;2023-02-15T08:51:27;1.93;;;1.70;;
29030;SDS011;16122;50.236;11.734;2023-02-15T08:53:55;2.10;;;2.00;;
29030;SDS011;16122;50.236;11.734;2023-02-15T08:56:23;2.00;;;1.80;;
29030;SDS011;16122;50.236;11.734;2023-02-15T08:58:51;1.83;;;1.73;;
29030;SDS011;16122;50.236;11.734;2023-02-15T09:01:22;1.40;;;1.30;;
29030;SDS011;16122;50.236;11.734;2023-02-15T09:03:50;1.40;;;1.30;;
29030;SDS011;16122;50.236;11.734;2023-02-15T09:06:20;1.70;;;1.60;;
29030;SDS011;16122;50.236;11.734;2023-02-15T09:08:47;1.50;;;1.40;;
29030;SDS011;16122;50.236;11.734;2023-02-15T09:11:20;1.70;;;1.60;;
29030;SDS011;16122;50.236;11.734;2023-02-15T09:13:53;1.63;;;1.53;;
29030;SDS011;16122;50.236;11.734;2023-02-15T09:16:25;1.80;;;1.70;;
29030;SDS011;16122;50.236;11.734;2023-02-15T09:18:53;1.77;;;1.67;;
29030;SDS011;16122;50.236;11.734;2023-02-15T09:21:20;2.03;;;1.90;;
29030;SDS011;16122;50.236;11.734;2023-02-15T09:23:48;1.90;;;1.80;;
29030;SDS011;16122;50.236;11.734;2023-02-15T09:26:16;2.20;;;2.00;;
29030;SDS011;16122;50.236;11.734;2023-02-15T09:28:44;1.57;;;1.47;;
29030;SDS011;16122;50.236;11.734;2023-02-15T09:31:11;1.87;;;1.77;;
29030;SDS011;16122;50.236;11.734;2023-02-15T09:33:43;2.07;;;1.97;;
29030;SDS011;16122;50.236;11.734;2023-02-15T09:36:30;2.13;;;1.97;;
29030;SDS011;16122;50.236;11.734;2023-02-15T09:50:16;2.00;;;1.80;;
29030;SDS011;16122;50.236;11.734;2023-02-15T09:56:00;2.20;;;1.60;;
29030;SDS011;16122;50.236;11.734;2023-02-15T10:13:25;2.20;;;2.00;;
29030;SDS011;16122;50.236;11.734;2023-02-15T10:15:37;2.70;;;2.20;;
29030;SDS011;16122;50.236;11.734;2023-02-15T10:26:53;2.30;;;2.13;;
29030;SDS011;16122;50.236;11.734;2023-02-15T10:35:16;2.70;;;2.50;;
29030;SDS011;16122;50.236;11.734;2023-02-15T10:40:51;3.40;;;2.43;;
29030;SDS011;16122;50.236;11.734;2023-02-15T10:57:34;2.07;;;1.97;;
29030;SDS011;16122;50.236;11.734;2023-02-15T11:00:19;2.23;;;2.07;;
29030;SDS011;16122;50.236;11.734;2023-02-15T11:05:45;2.17;;;1.97;;
29030;SDS011;16122;50.236;11.734;2023-02-15T11:08:20;2.93;;;2.73;;
29030;SDS011;16122;50.236;11.734;2023-02-15T11:10:58;2.50;;;2.30;;
29030;SDS011;16122;50.236;11.734;2023-02-15T11:13:27;2.60;;;2.40;;
29030;SDS011;16122;50.236;11.734;2023-02-15T11:18:42;2.90;;;2.37;;
29030;SDS011;16122;50.236;11.734;2023-02-15T11:21:16;3.47;;;2.27;;
29030;SDS011;16122;50.236;11.734;2023-02-15T11:23:46;3.47;;;2.30;;
29030;SDS011;16122;50.236;11.734;2023-02-15T11:29:18;3.00;;;2.70;;
29030;SDS011;16122;50.236;11.734;2023-02-15T11:31:50;2.90;;;2.60;;
29030;SDS011;16122;50.236;11.734;2023-02-15T11:37:08;2.43;;;2.13;;
29030;SDS011;16122;50.236;11.734;2023-02-15T11:39:38;2.67;;;2.47;;
29030;SDS011;16122;50.236;11.734;2023-02-15T11:42:15;3.00;;;2.73;;
29030;SDS011;16122;50.236;11.734;2023-02-15T11:47:50;2.70;;;2.50;;
29030;SDS011;16122;50.236;11.734;2023-02-15T11:50:17;3.83;;;2.80;;
29030;SDS011;16122;50.236;11.734;2023-02-15T11:52:48;3.83;;;2.50;;
29030;SDS011;16122;50.236;11.734;2023-02-15T11:55:17;3.50;;;2.50;;
29030;SDS011;16122;50.236;11.734;2023-02-15T12:00:48;3.27;;;2.80;;
29030;SDS011;16122;50.236;11.734;2023-02-15T12:04:04;3.07;;;2.77;;
29030;SDS011;16122;50.236;11.734;2023-02-15T12:06:11;5.50;;;3.20;;
29030;SDS011;16122;50.236;11.734;2023-02-15T12:08:46;3.23;;;2.60;;
29030;SDS011;16122;50.236;11.734;2023-02-15T12:11:22;3.07;;;2.77;;
29030;SDS011;16122;50.236;11.734;2023-02-15T12:13:56;2.67;;;2.47;;
29030;SDS011;16122;50.236;11.734;2023-02-15T12:16:24;3.00;;;2.80;;
29030;SDS011;16122;50.236;11.734;2023-02-15T12:18:52;3.07;;;2.77;;
29030;SDS011;16122;50.236;11.734;2023-02-15T12:21:26;2.63;;;2.43;;
29030;SDS011;16122;50.236;11.734;2023-02-15T12:24:09;3.50;;;3.20;;
29030;SDS011;16122;50.236;11.734;2023-02-15T12:29:44;3.20;;;2.63;;
29030;SDS011;16122;50.236;11.734;2023-02-15T12:32:58;5.50;;;3.90;;
29030;SDS011;16122;50.236;11.734;2023-02-15T12:35:18;3.30;;;2.80;;
29030;SDS011;16122;50.236;11.734;2023-02-15T12:37:56;6.27;;;3.10;;
29030;SDS011;16122;50.236;11.734;2023-02-15T12:40:31;4.03;;;3.17;;
29030;SDS011;16122;50.236;11.734;2023-02-15T12:42:58;6.67;;;4.10;;
29030;SDS011;16122;50.236;11.734;2023-02-15T12:45:29;10.10;;;3.80;;
29030;SDS011;16122;50.236;11.734;2023-02-15T12:50:37;7.57;;;3.77;;
29030;SDS011;16122;50.236;11.734;2023-02-15T12:53:22;5.63;;;3.20;;
29030;SDS011;16122;50.236;11.734;2023-02-15T12:56:00;7.53;;;3.73;;
29030;SDS011;16122;50.236;11.734;2023-02-15T12:58:29;11.40;;;4.50;;
29030;SDS011;16122;50.236;11.734;2023-02-15T13:01:03;6.70;;;3.50;;
29030;SDS011;16122;50.236;11.734;2023-02-15T13:03:47;7.73;;;4.20;;
29030;SDS011;16122;50.236;11.734;2023-02-15T13:06:25;9.27;;;4.20;;
29030;SDS011;16122;50.236;11.734;2023-02-15T13:08:53;10.20;;;3.80;;
29030;SDS011;16122;50.236;11.734;2023-02-15T13:11:22;6.23;;;3.67;;
29030;SDS011;16122;50.236;11.734;2023-02-15T13:13:56;8.20;;;4.37;;
29030;SDS011;16122;50.236;11.734;2023-02-15T13:16:41;11.43;;;4.50;;
29030;SDS011;16122;50.236;11.734;2023-02-15T13:19:10;11.70;;;4.20;;
29030;SDS011;16122;50.236;11.734;2023-02-15T13:21:44;8.97;;;4.17;;
29030;SDS011;16122;50.236;11.734;2023-02-15T13:26:57;8.37;;;4.07;;
29030;SDS011;16122;50.236;11.734;2023-02-15T13:29:26;7.40;;;4.10;;
29030;SDS011;16122;50.236;11.734;2023-02-15T13:31:54;7.17;;;4.60;;
29030;SDS011;16122;50.236;11.734;2023-02-15T13:34:23;7.37;;;3.80;;
29030;SDS011;16122;50.236;11.734;2023-02-15T13:42:22;4.83;;;3.50;;
29030;SDS011;16122;50.236;11.734;2023-02-15T13:47:50;8.13;;;4.67;;
29030;SDS011;16122;50.236;11.734;2023-02-15T14:01:56;4.10;;;3.57;;
29030;SDS011;16122;50.236;11.734;2023-02-15T14:12:57;6.00;;;3.37;;
29030;SDS011;16122;50.236;11.734;2023-02-15T14:15:47;5.80;;;3.30;;
29030;SDS011;16122;50.236;11.734;2023-02-15T14:24:01;5.63;;;3.30;;
29030;SDS011;16122;50.236;11.734;2023-02-15T14:26:50;6.97;;;4.00;;
29030;SDS011;16122;50.236;11.734;2023-02-15T14:32:27;5.30;;;3.90;;
29030;SDS011;16122;50.236;11.734;2023-02-15T14:35:09;4.30;;;2.80;;
29030;SDS011;16122;50.236;11.734;2023-02-15T14:48:38;6.20;;;3.80;;
29030;SDS011;16122;50.236;11.734;2023-02-15T14:51:09;5.07;;;3.67;;
29030;SDS011;16122;50.236;11.734;2023-02-15T14:53:55;6.50;;;3.33;;
29030;SDS011;16122;50.236;11.734;2023-02-15T14:56:22;3.40;;;3.10;;
29030;SDS011;16122;50.236;11.734;2023-02-15T15:01:15;4.17;;;3.77;;
29030;SDS011;16122;50.236;11.734;2023-02-15T15:03:49;5.30;;;3.97;;
29030;SDS011;16122;50.236;11.734;2023-02-15T15:06:26;6.03;;;3.77;;
29030;SDS011;16122;50.236;11.734;2023-02-15T15:11:42;5.30;;;4.20;;
29030;SDS011;16122;50.236;11.734;2023-02-15T15:14:10;4.70;;;3.70;;
29030;SDS011;16122;50.236;11.734;2023-02-15T15:16:56;5.80;;;3.47;;
29030;SDS011;16122;50.236;11.734;2023-02-15T15:22:19;4.30;;;3.60;;
29030;SDS011;16122;50.236;11.734;2023-02-15T15:24:54;3.90;;;3.50;;
29030;SDS011;16122;50.236;11.734;2023-02-15T15:32:39;5.60;;;3.87;;
29030;SDS011;16122;50.236;11.734;2023-02-15T15:46:54;3.90;;;3.47;;
29030;SDS011;16122;50.236;11.734;2023-02-15T15:49:24;4.33;;;3.93;;
29030;SDS011;16122;50.236;11.734;2023-02-15T15:52:03;4.13;;;3.73;;
29030;SDS011;16122;50.236;11.734;2023-02-15T15:54:46;4.23;;;3.63;;
29030;SDS011;16122;50.236;11.734;2023-02-15T15:57:32;3.83;;;3.53;;
29030;SDS011;16122;50.236;11.734;2023-02-15T16:00:04;5.63;;;3.30;;
29030;SDS011;16122;50.236;11.734;2023-02-15T16:02:51;5.80;;;3.27;;
29030;SDS011;16122;50.236;11.734;2023-02-15T16:05:17;3.33;;;3.03;;
29030;SDS011;16122;50.236;11.734;2023-02-15T16:07:44;3.97;;;3.50;;
29030;SDS011;16122;50.236;11.734;2023-02-15T16:10:21;5.80;;;3.43;;
29030;SDS011;16122;50.236;11.734;2023-02-15T16:12:49;3.63;;;3.33;;
29030;SDS011;16122;50.236;11.734;2023-02-15T16:15:17;4.27;;;3.87;;
29030;SDS011;16122;50.236;11.734;2023-02-15T16:17:50;3.43;;;3.13;;
29030;SDS011;16122;50.236;11.734;2023-02-15T16:20:23;4.40;;;4.00;;
29030;SDS011;16122;50.236;11.734;2023-02-15T16:23:11;3.77;;;3.43;;
29030;SDS011;16122;50.236;11.734;2023-02-15T16:28:34;3.90;;;3.27;;
29030;SDS011;16122;50.236;11.734;2023-02-15T16:31:18;4.27;;;3.87;;
29030;SDS011;16122;50.236;11.734;2023-02-15T16:33:48;4.33;;;3.70;;
29030;SDS011;16122;50.236;11.734;2023-02-15T16:41:16;4.57;;;3.50;;
29030;SDS011;16122;50.236;11.734;2023-02-15T16:43:47;5.23;;;3.80;;
29030;SDS011;16122;50.236;11.734;2023-02-15T16:46:19;4.30;;;3.17;;
29030;SDS011;16122;50.236;11.734;2023-02-15T16:48:52;3.77;;;3.37;;
29030;SDS011;16122;50.236;11.734;2023-02-15T16:51:22;3.77;;;3.00;;
29030;SDS011;16122;50.236;11.734;2023-02-15T16:53:50;3.57;;;3.27;;
29030;SDS011;16122;50.236;11.734;2023-02-15T16:56:22;3.40;;;3.10;;
29030;SDS011;16122;50.236;11.734;2023-02-15T16:58:50;3.73;;;3.37;;
29030;SDS011;16122;50.236;11.734;2023-02-15T17:01:17;4.50;;;3.27;;
29030;SDS011;16122;50.236;11.734;2023-02-15T17:03:48;4.57;;;3.60;;
29030;SDS011;16122;50.236;11.734;2023-02-15T17:06:25;4.80;;;3.53;;
29030;SDS011;16122;50.236;11.734;2023-02-15T17:09:04;3.33;;;3.13;;
29030;SDS011;16122;50.236;11.734;2023-02-15T17:11:37;3.57;;;3.27;;
29030;SDS011;16122;50.236;11.734;2023-02-15T17:16:53;5.63;;;3.43;;
29030;SDS011;16122;50.236;11.734;2023-02-15T17:19:24;3.70;;;3.30;;
29030;SDS011;16122;50.236;11.734;2023-02-15T17:22:05;3.63;;;3.33;;
29030;SDS011;16122;50.236;11.734;2023-02-15T17:24:36;5.87;;;3.57;;
29030;SDS011;16122;50.236;11.734;2023-02-15T17:27:12;4.20;;;3.80;;
29030;SDS011;16122;50.236;11.734;2023-02-15T17:29:55;3.87;;;3.57;;
29030;SDS011;16122;50.236;11.734;2023-02-15T17:32:43;3.53;;;3.23;;
29030;SDS011;16122;50.236;11.734;2023-02-15T17:35:19;3.90;;;3.43;;
29030;SDS011;16122;50.236;11.734;2023-02-15T17:40:45;3.73;;;3.20;;
29030;SDS011;16122;50.236;11.734;2023-02-15T17:43:11;3.80;;;2.73;;
29030;SDS011;16122;50.236;11.734;2023-02-15T17:45:47;3.83;;;3.43;;
29030;SDS011;16122;50.236;11.734;2023-02-15T17:50:48;4.93;;;3.70;;
29030;SDS011;16122;50.236;11.734;2023-02-15T17:53:17;3.73;;;3.07;;
29030;SDS011;16122;50.236;11.734;2023-02-15T17:55:44;4.70;;;3.60;;
29030;SDS011;16122;50.236;11.734;2023-02-15T17:58:14;3.60;;;2.70;;
29030;SDS011;16122;50.236;11.734;2023-02-15T18:01:03;5.43;;;3.30;;
29030;SDS011;16122;50.236;11.734;2023-02-15T18:03:58;3.30;;;3.00;;
29030;SDS011;16122;50.236;11.734;2023-02-15T18:06:43;4.73;;;3.67;;
29030;SDS011;16122;50.236;11.734;2023-02-15T18:09:28;2.90;;;2.70;;
29030;SDS011;16122;50.236;11.734;2023-02-15T18:14:52;4.03;;;3.37;;
29030;SDS011;16122;50.236;11.734;2023-02-15T18:17:18;4.17;;;3.40;;
29030;SDS011;16122;50.236;11.734;2023-02-15T18:19:51;5.90;;;3.57;;
29030;SDS011;16122;50.236;11.734;2023-02-15T18:22:18;6.73;;;2.90;;
29030;SDS011;16122;50.236;11.734;2023-02-15T18:24:45;3.13;;;2.90;;
29030;SDS011;16122;50.236;11.734;2023-02-15T18:27:13;4.20;;;3.03;;
29030;SDS011;16122;50.236;11.734;2023-02-15T18:29:40;3.33;;;2.73;;
29030;SDS011;16122;50.236;11.734;2023-02-15T18:32:07;3.77;;;3.47;;
29030;SDS011;16122;50.236;11.734;2023-02-15T18:34:42;3.23;;;2.93;;
29030;SDS011;16122;50.236;11.734;2023-02-15T18:37:17;3.20;;;2.90;;